Time;durP1;ratioP1;P1;durP2;ratioP2;P2;SDS_P1;SDS_P2;PMS_P1;PMS_P2;Temp;Humidity;BMP_temperature;BMP_pressure;BME280_temperature;BME280_humidity;BME280_pressure;Samples;Min_cycle;Max_cycle;Signal;HPM_P1;HPM_P2
2023/05/04 00:01:50;;;;;;;11.60;4.70;;;9.90;99.90;;;;;;5080949;28;20085;-70
2023/05/04 00:04:16;;;;;;;11.73;4.70;;;9.90;99.90;;;;;;5080791;28;20093;-71
2023/05/04 00:06:42;;;;;;;12.63;4.55;;;9.90;99.90;;;;;;5098503;28;20048;-71
2023/05/04 00:09:09;;;;;;;12.18;4.55;;;9.80;99.90;;;;;;5081217;28;20312;-71
2023/05/04 00:11:35;;;;;;;10.15;4.18;;;9.90;99.90;;;;;;5077167;28;20140;-71
2023/05/04 00:14:01;;;;;;;11.57;4.60;;;9.80;99.90;;;;;;5060908;28;20044;-71
2023/05/04 00:16:27;;;;;;;9.38;4.07;;;9.80;99.90;;;;;;5078449;28;20044;-71
2023/05/04 00:18:53;;;;;;;12.13;4.78;;;9.80;99.90;;;;;;5060775;28;20053;-71
2023/05/04 00:21:18;;;;;;;11.13;5.07;;;9.70;99.90;;;;;;5078112;28;20338;-71
2023/05/04 00:23:44;;;;;;;11.25;4.72;;;9.70;99.90;;;;;;5078011;28;20059;-71
2023/05/04 00:26:10;;;;;;;8.18;4.40;;;9.70;99.90;;;;;;5078324;28;20047;-71
2023/05/04 00:28:35;;;;;;;9.95;4.55;;;9.70;99.90;;;;;;5077837;28;20368;-72
2023/05/04 00:31:01;;;;;;;13.32;5.05;;;9.60;99.90;;;;;;5077916;28;20036;-71
2023/05/04 00:33:27;;;;;;;13.10;4.30;;;9.60;99.90;;;;;;5060182;28;20105;-71
2023/05/04 00:35:52;;;;;;;7.68;4.07;;;9.60;99.90;;;;;;5078068;28;20051;-71
2023/05/04 00:38:18;;;;;;;10.50;4.63;;;9.60;99.90;;;;;;5078164;28;20043;-72
2023/05/04 00:40:44;;;;;;;9.02;3.92;;;9.50;99.90;;;;;;5078359;28;20071;-71
2023/05/04 00:43:10;;;;;;;9.18;4.43;;;9.50;99.90;;;;;;5077686;28;20094;-71
2023/05/04 00:45:36;;;;;;;10.85;4.57;;;9.40;99.90;;;;;;5077916;28;20037;-71
2023/05/04 00:48:03;;;;;;;12.20;4.35;;;9.40;99.90;;;;;;5060247;28;20042;-71
2023/05/04 00:50:29;;;;;;;10.63;4.20;;;9.40;99.90;;;;;;5086291;28;20487;-71
2023/05/04 00:52:57;;;;;;;8.65;4.53;;;9.40;99.90;;;;;;5098040;28;20040;-71
2023/05/04 00:55:23;;;;;;;9.70;4.15;;;9.40;99.90;;;;;;5097595;28;20418;-71
2023/05/04 00:57:50;;;;;;;9.43;4.65;;;9.40;99.90;;;;;;5097626;28;20109;-71
2023/05/04 01:00:16;;;;;;;14.02;4.90;;;9.30;99.90;;;;;;5097504;28;20052;-71
2023/05/04 01:02:42;;;;;;;10.45;4.13;;;9.20;99.90;;;;;;5097833;28;20090;-71
2023/05/04 01:05:09;;;;;;;12.32;4.75;;;9.20;99.90;;;;;;5097511;28;20438;-71
2023/05/04 01:07:53;;;;;;;8.23;4.65;;;9.20;99.90;;;;;;5097813;28;20329;-71
2023/05/04 01:10:37;;;;;;;8.88;5.00;;;9.20;99.90;;;;;;5079491;28;20493;-71
2023/05/04 01:13:11;;;;;;;10.18;4.70;;;9.20;99.90;;;;;;5097700;28;20040;-71
2023/05/04 01:15:39;;;;;;;13.55;4.75;;;9.20;99.90;;;;;;5097522;28;20074;-71
2023/05/04 01:18:05;;;;;;;11.07;5.07;;;9.20;99.90;;;;;;5096555;28;20040;-71
2023/05/04 01:20:31;;;;;;;13.15;4.55;;;9.30;99.90;;;;;;5097261;28;20447;-71
2023/05/04 01:22:57;;;;;;;9.45;4.40;;;9.20;99.90;;;;;;5097205;28;20443;-71
2023/05/04 01:25:29;;;;;;;9.52;4.43;;;9.10;99.90;;;;;;5097169;28;20070;-72
2023/05/04 01:28:09;;;;;;;7.28;4.15;;;9.10;99.90;;;;;;5097441;28;20040;-71
2023/05/04 01:30:42;;;;;;;11.50;4.72;;;9.10;99.90;;;;;;5097124;28;20079;-71
2023/05/04 01:33:08;;;;;;;9.82;4.38;;;9.00;99.90;;;;;;5097064;28;20425;-71
2023/05/04 01:35:35;;;;;;;10.85;4.63;;;9.10;99.90;;;;;;5097216;28;20032;-71
2023/05/04 01:38:01;;;;;;;10.63;4.60;;;9.10;99.90;;;;;;5096936;28;20437;-71
2023/05/04 01:40:27;;;;;;;13.57;4.53;;;9.10;99.90;;;;;;5097211;28;20043;-71
2023/05/04 01:42:52;;;;;;;11.60;4.93;;;9.00;99.90;;;;;;5097177;28;20040;-71
2023/05/04 01:45:18;;;;;;;10.45;4.70;;;9.00;99.90;;;;;;5097185;28;20032;-71
2023/05/04 01:47:45;;;;;;;7.80;4.30;;;9.00;99.90;;;;;;5097116;28;20043;-71
2023/05/04 01:50:10;;;;;;;11.75;4.95;;;9.10;99.90;;;;;;5097124;28;20068;-71
2023/05/04 01:52:36;;;;;;;14.88;5.25;;;9.10;99.90;;;;;;5079320;28;20424;-71
2023/05/04 01:55:02;;;;;;;9.45;5.10;;;9.00;99.90;;;;;;5097013;28;20055;-71
2023/05/04 01:57:28;;;;;;;13.38;5.28;;;9.10;99.90;;;;;;5096601;28;20086;-71
2023/05/04 01:59:53;;;;;;;15.75;6.50;;;9.10;99.90;;;;;;5096538;28;20069;-71
2023/05/04 02:02:19;;;;;;;15.52;5.60;;;9.00;99.90;;;;;;5097003;28;20040;-71
2023/05/04 02:04:45;;;;;;;12.98;5.40;;;9.10;99.90;;;;;;5096940;28;20364;-71
2023/05/04 02:07:11;;;;;;;10.55;5.53;;;9.10;99.90;;;;;;5096850;28;20047;-71
2023/05/04 02:09:37;;;;;;;10.15;5.20;;;9.20;99.90;;;;;;5096792;28;20051;-71
2023/05/04 02:12:03;;;;;;;12.02;6.03;;;9.20;99.90;;;;;;5096585;28;20036;-71
2023/05/04 02:14:29;;;;;;;14.18;5.70;;;9.30;99.90;;;;;;5096478;28;20042;-71
2023/05/04 02:16:55;;;;;;;16.17;5.88;;;9.40;99.90;;;;;;5096527;28;20040;-72
2023/05/04 02:19:20;;;;;;;10.52;5.90;;;9.40;99.90;;;;;;5096776;28;20307;-71
2023/05/04 02:21:47;;;;;;;14.23;5.63;;;9.40;99.90;;;;;;5097038;28;20453;-71
2023/05/04 02:24:12;;;;;;;15.77;6.10;;;9.40;99.90;;;;;;5096437;28;20510;-71
2023/05/04 02:26:38;;;;;;;16.35;7.25;;;9.40;99.90;;;;;;5096684;28;20076;-71
2023/05/04 02:29:04;;;;;;;12.05;4.97;;;9.40;99.90;;;;;;5098196;28;20042;-72
2023/05/04 02:31:31;;;;;;;11.25;6.25;;;9.40;99.90;;;;;;5100515;28;20036;-71
2023/05/04 02:33:57;;;;;;;12.82;5.78;;;9.40;99.90;;;;;;5100499;28;20051;-71
2023/05/04 02:36:22;;;;;;;10.43;5.28;;;9.50;99.90;;;;;;5100255;28;20040;-71
2023/05/04 02:38:49;;;;;;;9.82;5.65;;;9.40;99.90;;;;;;5100613;28;20040;-71
2023/05/04 02:41:15;;;;;;;11.40;5.68;;;9.30;99.90;;;;;;5100616;28;20036;-71
2023/05/04 02:43:40;;;;;;;14.00;6.38;;;9.40;99.90;;;;;;5100273;28;20181;-71
2023/05/04 02:46:06;;;;;;;15.90;6.70;;;9.30;99.90;;;;;;5082367;28;20059;-71
2023/05/04 02:48:32;;;;;;;11.00;5.75;;;9.30;99.90;;;;;;5100139;28;20096;-71
2023/05/04 02:50:58;;;;;;;14.73;6.43;;;9.30;99.90;;;;;;5082403;28;20047;-71
2023/05/04 02:53:23;;;;;;;14.43;6.35;;;9.30;99.90;;;;;;5100372;28;20324;-71
2023/05/04 02:55:49;;;;;;;16.70;7.28;;;9.30;99.90;;;;;;5082295;28;20040;-72
2023/05/04 02:58:15;;;;;;;18.92;7.40;;;9.20;99.90;;;;;;5099909;28;20070;-71
2023/05/04 03:00:41;;;;;;;14.20;7.13;;;9.10;99.90;;;;;;5099870;28;20079;-71
2023/05/04 03:03:06;;;;;;;16.85;7.22;;;9.20;99.90;;;;;;5099912;28;20044;-71
2023/05/04 03:05:32;;;;;;;14.38;6.70;;;9.10;99.90;;;;;;5100159;28;20032;-71
2023/05/04 03:07:58;;;;;;;16.00;7.65;;;9.10;99.90;;;;;;5100101;28;20452;-71
2023/05/04 03:10:24;;;;;;;14.50;6.43;;;9.00;99.90;;;;;;5100091;28;20040;-71
2023/05/04 03:12:49;;;;;;;13.52;6.80;;;9.00;99.90;;;;;;5100038;28;20063;-71
2023/05/04 03:15:15;;;;;;;18.27;7.57;;;8.90;99.90;;;;;;5081761;28;20048;-72
2023/05/04 03:17:42;;;;;;;15.65;7.65;;;8.90;99.90;;;;;;5099876;28;20036;-71
2023/05/04 03:20:08;;;;;;;19.23;7.13;;;9.00;99.90;;;;;;5099579;28;20455;-72
2023/05/04 03:22:34;;;;;;;19.63;7.18;;;9.10;99.90;;;;;;5099573;28;20040;-71
2023/05/04 03:25:00;;;;;;;22.08;7.30;;;8.90;99.90;;;;;;5099477;28;20115;-71
2023/05/04 03:27:26;;;;;;;21.35;7.40;;;8.90;99.90;;;;;;5099718;28;20036;-71
2023/05/04 03:29:51;;;;;;;17.13;7.35;;;8.90;99.90;;;;;;5099320;28;20050;-71
2023/05/04 03:32:17;;;;;;;18.17;7.55;;;8.90;99.90;;;;;;5099652;28;20115;-72
2023/05/04 03:34:44;;;;;;;19.00;7.68;;;8.90;99.90;;;;;;5099293;28;20048;-71
2023/05/04 03:37:10;;;;;;;18.63;7.15;;;9.00;99.90;;;;;;5099516;28;20044;-71
2023/05/04 03:39:36;;;;;;;20.88;7.70;;;8.90;99.90;;;;;;5098880;28;20105;-71
2023/05/04 03:42:03;;;;;;;15.50;7.47;;;9.00;99.90;;;;;;5099210;28;20040;-71
2023/05/04 03:44:29;;;;;;;16.08;7.30;;;8.90;99.90;;;;;;5099460;28;20381;-71
2023/05/04 03:46:55;;;;;;;19.50;7.15;;;8.90;99.90;;;;;;5099370;28;20119;-71
2023/05/04 03:49:21;;;;;;;16.08;6.70;;;9.00;99.90;;;;;;5099305;28;20040;-71
2023/05/04 03:51:46;;;;;;;14.38;6.60;;;9.00;99.90;;;;;;5099325;28;20048;-71
2023/05/04 03:54:12;;;;;;;16.35;7.10;;;8.90;99.90;;;;;;5099281;28;20181;-71
2023/05/04 03:56:38;;;;;;;16.13;7.50;;;8.90;99.90;;;;;;5098929;28;20106;-73
2023/05/04 03:59:03;;;;;;;16.80;7.25;;;8.90;99.90;;;;;;5098777;28;20042;-72
2023/05/04 04:01:29;;;;;;;16.88;7.53;;;8.90;99.90;;;;;;5099048;28;20111;-72
2023/05/04 04:03:55;;;;;;;16.40;7.82;;;9.00;99.90;;;;;;5080851;28;20040;-71
2023/05/04 04:06:22;;;;;;;20.38;7.28;;;8.90;99.90;;;;;;5098895;28;20044;-71
2023/05/04 04:08:47;;;;;;;13.95;7.22;;;9.00;99.90;;;;;;5081202;28;20353;-72
2023/05/04 04:11:13;;;;;;;15.77;7.32;;;9.20;99.90;;;;;;5098575;28;20036;-71
2023/05/04 04:13:39;;;;;;;17.23;7.07;;;9.20;99.90;;;;;;5098542;28;20040;-71
2023/05/04 04:16:05;;;;;;;17.13;7.80;;;9.10;99.90;;;;;;5098728;28;20097;-71
2023/05/04 04:18:31;;;;;;;20.80;7.65;;;9.10;99.90;;;;;;5098410;28;20422;-71
2023/05/04 04:20:57;;;;;;;16.60;8.02;;;9.00;99.90;;;;;;5098649;28;20032;-71
2023/05/04 04:23:23;;;;;;;19.75;7.50;;;9.00;99.90;;;;;;5098341;28;20105;-71
2023/05/04 04:25:49;;;;;;;14.77;7.70;;;8.90;99.90;;;;;;5080891;28;20079;-71
2023/05/04 04:28:15;;;;;;;14.30;7.55;;;9.00;99.90;;;;;;5098529;28;20137;-71
2023/05/04 04:30:41;;;;;;;16.35;7.00;;;9.00;99.90;;;;;;5098092;28;20337;-71
2023/05/04 04:33:08;;;;;;;14.88;7.13;;;8.80;99.90;;;;;;5098390;28;20043;-71
2023/05/04 04:35:33;;;;;;;18.20;7.55;;;8.80;99.90;;;;;;5098327;28;20036;-71
2023/05/04 04:37:59;;;;;;;14.65;7.18;;;8.80;99.90;;;;;;5080522;28;20504;-71
2023/05/04 04:40:25;;;;;;;17.90;6.65;;;8.80;99.90;;;;;;5098274;28;20480;-71
2023/05/04 04:42:51;;;;;;;18.13;7.45;;;8.80;99.90;;;;;;5098595;28;20104;-71
2023/05/04 04:45:17;;;;;;;16.98;6.47;;;8.80;99.90;;;;;;5098139;28;20421;-72
2023/05/04 04:47:44;;;;;;;14.88;6.60;;;8.80;99.90;;;;;;5098618;28;20385;-71
2023/05/04 04:50:10;;;;;;;19.02;7.65;;;8.70;99.90;;;;;;5098128;28;20311;-71
2023/05/04 04:52:37;;;;;;;16.77;6.05;;;8.80;99.90;;;;;;5098073;28;20068;-71
2023/05/04 04:55:03;;;;;;;15.98;6.60;;;8.70;99.90;;;;;;5097976;28;20349;-71
2023/05/04 04:57:29;;;;;;;17.88;7.38;;;8.80;99.90;;;;;;5079602;28;20434;-71
2023/05/04 04:59:56;;;;;;;13.80;6.18;;;8.80;99.90;;;;;;5097502;28;20044;-71
2023/05/04 05:02:22;;;;;;;15.82;6.93;;;8.90;99.90;;;;;;5097897;28;20040;-71
2023/05/04 05:04:48;;;;;;;14.25;7.07;;;9.00;99.90;;;;;;5097847;28;20310;-72
2023/05/04 05:07:14;;;;;;;14.30;5.97;;;9.00;99.90;;;;;;5079612;28;20170;-71
2023/05/04 05:09:40;;;;;;;14.63;6.65;;;9.00;99.90;;;;;;5097789;28;20040;-71
2023/05/04 05:12:05;;;;;;;18.52;8.00;;;9.20;99.90;;;;;;5097402;28;20044;-71
2023/05/04 05:14:31;;;;;;;21.40;7.05;;;9.40;99.90;;;;;;5097724;28;20202;-71
2023/05/04 05:16:58;;;;;;;15.93;6.68;;;9.40;99.90;;;;;;5097260;28;20043;-71
2023/05/04 05:19:24;;;;;;;18.05;6.82;;;9.50;99.90;;;;;;5097584;28;20321;-71
2023/05/04 05:21:51;;;;;;;16.63;6.10;;;9.50;99.90;;;;;;5097570;28;20415;-71
2023/05/04 05:24:16;;;;;;;16.88;7.13;;;9.40;99.90;;;;;;5097281;28;20082;-71
2023/05/04 05:26:42;;;;;;;14.45;6.07;;;9.40;99.90;;;;;;5097474;28;20076;-71
2023/05/04 05:29:08;;;;;;;17.33;7.78;;;9.40;99.90;;;;;;5097068;28;20417;-71
2023/05/04 05:31:34;;;;;;;17.30;7.57;;;9.50;99.90;;;;;;5097370;28;20047;-71
2023/05/04 05:34:00;;;;;;;23.70;7.25;;;9.40;99.90;;;;;;5097358;28;20040;-71
2023/05/04 05:36:26;;;;;;;18.70;7.57;;;9.40;99.90;;;;;;5096912;28;20417;-72
2023/05/04 05:38:52;;;;;;;15.15;7.18;;;9.50;99.90;;;;;;5097249;28;20082;-71
2023/05/04 05:41:18;;;;;;;17.08;7.68;;;9.50;99.90;;;;;;5097238;28;20071;-71
2023/05/04 05:43:43;;;;;;;14.98;7.25;;;9.60;99.90;;;;;;5097246;28;20310;-71
2023/05/04 05:46:11;;;;;;;18.45;7.18;;;9.60;99.90;;;;;;5097173;28;20308;-72
2023/05/04 05:48:37;;;;;;;19.45;7.10;;;9.60;99.90;;;;;;5097178;28;20145;-72
2023/05/04 05:51:03;;;;;;;18.38;7.43;;;9.60;99.90;;;;;;5097176;28;20445;-71
2023/05/04 05:53:29;;;;;;;18.55;7.28;;;9.60;99.90;;;;;;5078914;28;20051;-71
2023/05/04 05:55:54;;;;;;;16.00;6.75;;;9.70;99.90;;;;;;5097009;28;20040;-71
2023/05/04 05:58:20;;;;;;;18.65;6.78;;;9.70;99.90;;;;;;5078887;28;20059;-70
2023/05/04 06:00:46;;;;;;;15.05;6.40;;;9.90;99.90;;;;;;5096541;28;20082;-72
2023/05/04 06:03:13;;;;;;;17.70;6.88;;;9.90;99.90;;;;;;5096549;28;20047;-71
2023/05/04 06:05:38;;;;;;;17.67;7.22;;;9.80;99.90;;;;;;5096895;28;20044;-72
2023/05/04 06:08:04;;;;;;;12.50;6.43;;;9.90;99.90;;;;;;5096908;28;20050;-71
2023/05/04 06:10:30;;;;;;;15.10;5.95;;;9.90;99.90;;;;;;5096963;28;20050;-73
2023/05/04 06:12:56;;;;;;;16.05;6.68;;;9.80;99.90;;;;;;5096829;28;20083;-71
2023/05/04 06:15:21;;;;;;;16.63;5.75;;;9.80;99.90;;;;;;5096796;28;20044;-71
2023/05/04 06:17:48;;;;;;;16.75;6.40;;;9.90;99.90;;;;;;5096739;28;20041;-71
2023/05/04 06:20:14;;;;;;;12.85;6.95;;;10.10;99.90;;;;;;5096772;28;20044;-71
2023/05/04 06:22:40;;;;;;;15.90;7.13;;;10.20;99.90;;;;;;5096803;28;20043;-71
2023/05/04 06:25:07;;;;;;;18.63;6.57;;;10.20;99.90;;;;;;5096749;28;20040;-71
2023/05/04 06:27:33;;;;;;;17.23;7.20;;;10.30;99.90;;;;;;5096747;28;20371;-71
2023/05/04 06:29:58;;;;;;;14.45;6.75;;;10.50;99.90;;;;;;5096320;28;20047;-71
2023/05/04 06:32:24;;;;;;;11.80;5.97;;;10.50;99.90;;;;;;5096719;28;20044;-71
2023/05/04 06:34:54;;;;;;;14.02;6.32;;;10.30;99.90;;;;;;5096299;28;20126;-72
2023/05/04 06:37:20;;;;;;;14.82;6.55;;;10.20;99.90;;;;;;5096589;28;20113;-71
2023/05/04 06:39:46;;;;;;;14.05;6.72;;;10.30;99.90;;;;;;5096510;28;20035;-71
2023/05/04 06:42:12;;;;;;;16.50;6.78;;;10.30;99.90;;;;;;5096623;28;20337;-71
2023/05/04 06:44:38;;;;;;;15.15;7.18;;;10.40;99.90;;;;;;5096362;28;20028;-71
2023/05/04 06:47:04;;;;;;;18.17;7.45;;;10.40;99.90;;;;;;5078898;28;20050;-71
2023/05/04 06:49:31;;;;;;;13.90;6.40;;;10.50;99.90;;;;;;5096525;28;20044;-71
2023/05/04 06:51:56;;;;;;;17.30;6.70;;;10.50;99.90;;;;;;5078346;28;20052;-71
2023/05/04 06:54:22;;;;;;;19.77;7.43;;;10.60;99.90;;;;;;5096494;28;20063;-71
2023/05/04 06:56:47;;;;;;;14.98;7.25;;;10.60;99.90;;;;;;5078144;28;20337;-71
2023/05/04 06:59:15;;;;;;;13.45;7.35;;;10.50;99.90;;;;;;5096088;28;20048;-71
2023/05/04 07:01:41;;;;;;;15.73;7.35;;;10.60;99.90;;;;;;5096101;28;20040;-71
2023/05/04 07:04:07;;;;;;;14.35;7.10;;;10.40;99.90;;;;;;5078635;28;20040;-71
2023/05/04 07:06:32;;;;;;;16.38;6.60;;;10.50;99.90;;;;;;5096061;28;20051;-71
2023/05/04 07:08:58;;;;;;;16.67;6.78;;;10.70;99.90;;;;;;5096039;28;20167;-71
2023/05/04 07:11:25;;;;;;;15.57;7.20;;;10.80;99.90;;;;;;5096363;28;20074;-71
2023/05/04 07:13:51;;;;;;;14.50;6.75;;;10.80;99.90;;;;;;5087242;28;20047;-71
2023/05/04 07:16:16;;;;;;;13.70;6.45;;;11.00;99.90;;;;;;5089039;28;20115;-71
2023/05/04 07:18:42;;;;;;;15.43;6.65;;;11.10;99.90;;;;;;5069157;28;20390;-71
2023/05/04 07:21:11;;;;;;;14.70;6.57;;;11.40;99.90;;;;;;5091466;28;20345;-70
2023/05/04 07:23:37;;;;;;;15.13;6.55;;;11.60;99.90;;;;;;5099888;28;20351;-71
2023/05/04 07:26:03;;;;;;;14.18;6.03;;;11.80;99.90;;;;;;5099532;28;20336;-71
2023/05/04 07:28:29;;;;;;;15.80;6.28;;;12.00;99.90;;;;;;5099742;28;20110;-71
2023/05/04 07:30:54;;;;;;;12.20;6.63;;;12.10;99.90;;;;;;5099061;28;20077;-71
2023/05/04 07:33:20;;;;;;;13.38;6.85;;;12.10;99.90;;;;;;5099726;28;20032;-69
2023/05/04 07:35:46;;;;;;;15.65;5.97;;;12.10;99.90;;;;;;5099338;28;20517;-69
2023/05/04 07:38:12;;;;;;;10.93;6.32;;;12.20;99.90;;;;;;5099633;28;20032;-69
2023/05/04 07:40:38;;;;;;;18.60;7.40;;;12.10;99.90;;;;;;5099630;28;20414;-70
2023/05/04 07:43:04;;;;;;;16.63;6.75;;;12.30;99.90;;;;;;5099512;28;20036;-69
2023/05/04 07:45:30;;;;;;;17.23;6.93;;;12.30;99.90;;;;;;5099426;28;20040;-68
2023/05/04 07:47:55;;;;;;;14.55;6.63;;;12.30;99.90;;;;;;5099407;28;20047;-68
2023/05/04 07:50:21;;;;;;;19.75;7.80;;;12.20;99.90;;;;;;5099146;28;20376;-68
2023/05/04 07:52:48;;;;;;;20.77;7.03;;;12.30;99.90;;;;;;5099338;28;20407;-68
2023/05/04 07:55:14;;;;;;;17.92;6.75;;;12.20;99.90;;;;;;5081536;28;20040;-68
2023/05/04 07:57:40;;;;;;;13.75;7.38;;;12.20;99.90;;;;;;5098654;28;20135;-69
2023/05/04 08:00:08;;;;;;;15.35;7.20;;;12.20;99.90;;;;;;5098770;28;20047;-69
2023/05/04 08:02:34;;;;;;;17.25;6.68;;;12.20;99.90;;;;;;5080903;28;20040;-69
2023/05/04 08:04:59;;;;;;;14.85;6.38;;;12.30;99.90;;;;;;5099063;28;20070;-68
2023/05/04 08:07:25;;;;;;;12.27;6.53;;;12.40;99.90;;;;;;5091894;28;20089;-69
2023/05/04 08:09:54;;;;;;;17.77;7.00;;;12.50;99.90;;;;;;5082924;28;20106;-69
2023/05/04 08:12:20;;;;;;;19.23;7.30;;;12.60;99.90;;;;;;5078648;28;20036;-68
2023/05/04 08:14:46;;;;;;;14.65;7.35;;;12.90;99.90;;;;;;5078445;28;20044;-69
2023/05/04 08:17:11;;;;;;;13.18;6.63;;;13.00;99.90;;;;;;5078356;28;20141;-69
2023/05/04 08:19:37;;;;;;;14.05;6.88;;;13.20;99.90;;;;;;5078380;28;20434;-68
2023/05/04 08:22:02;;;;;;;16.60;7.10;;;13.50;99.90;;;;;;5078334;28;20433;-69
2023/05/04 08:24:29;;;;;;;14.25;6.80;;;13.60;99.90;;;;;;5080023;28;20418;-69
2023/05/04 08:26:55;;;;;;;12.88;6.43;;;13.60;99.90;;;;;;5098175;28;20094;-70
2023/05/04 08:29:21;;;;;;;13.68;6.20;;;13.70;99.90;;;;;;5096846;28;20373;-69
2023/05/04 08:31:48;;;;;;;13.98;6.65;;;13.80;99.90;;;;;;5098033;28;20119;-69
2023/05/04 08:34:13;;;;;;;12.48;6.22;;;13.90;99.90;;;;;;5098359;28;20043;-69
2023/05/04 08:36:39;;;;;;;16.02;6.38;;;14.00;99.90;;;;;;5080240;28;20047;-69
2023/05/04 08:39:06;;;;;;;20.75;6.68;;;14.20;99.90;;;;;;5094735;28;20040;-69
2023/05/04 08:41:32;;;;;;;15.60;7.03;;;14.40;99.90;;;;;;5076420;28;20045;-69
2023/05/04 08:43:58;;;;;;;14.45;6.78;;;14.60;99.90;;;;;;5078052;28;20039;-69
2023/05/04 08:46:24;;;;;;;13.48;6.43;;;14.90;99.90;;;;;;5077928;28;20032;-69
2023/05/04 08:48:51;;;;;;;15.98;6.15;;;14.80;99.90;;;;;;5077780;28;20037;-69
2023/05/04 08:51:17;;;;;;;10.15;5.57;;;14.60;99.90;;;;;;5077660;28;20047;-69
2023/05/04 08:53:46;;;;;;;14.55;5.88;;;14.80;99.90;;;;;;5078474;28;20356;-68
2023/05/04 08:56:13;;;;;;;14.18;6.30;;;14.80;99.90;;;;;;5076172;28;20113;-69
2023/05/04 08:58:49;;;;;;;12.77;5.75;;;15.10;99.90;;;;;;5077598;28;20047;-69
2023/05/04 09:01:17;;;;;;;11.85;5.82;;;15.40;99.90;;;;;;5077358;28;20040;-69
2023/05/04 09:03:44;;;;;;;13.05;5.63;;;15.40;99.90;;;;;;5077637;28;20044;-68
2023/05/04 09:06:11;;;;;;;11.25;5.25;;;15.30;99.90;;;;;;5077400;28;20048;-68
2023/05/04 09:08:36;;;;;;;10.05;5.32;;;15.30;99.90;;;;;;5077568;28;20119;-68
2023/05/04 09:11:03;;;;;;;11.88;5.53;;;15.40;99.90;;;;;;5077192;28;20127;-68
2023/05/04 09:13:30;;;;;;;10.98;4.70;;;15.40;99.90;;;;;;5077495;28;20041;-68
2023/05/04 09:15:59;;;;;;;10.00;5.60;;;15.40;99.90;;;;;;5077077;28;20449;-69
2023/05/04 09:18:39;;;;;;;11.75;5.43;;;15.60;99.90;;;;;;5077059;28;20306;-68
2023/05/04 09:21:05;;;;;;;15.38;5.00;;;15.50;99.90;;;;;;5077361;28;20052;-68
2023/05/04 09:23:32;;;;;;;10.40;5.07;;;15.60;99.90;;;;;;5077336;28;20029;-68
2023/05/04 09:25:57;;;;;;;9.73;4.93;;;15.60;99.90;;;;;;5077252;28;20036;-69
2023/05/04 09:28:35;;;;;;;11.63;5.25;;;15.70;99.90;;;;;;5043208;28;20048;-78
2023/05/04 09:31:01;;;;;;;12.82;4.88;;;15.60;99.90;;;;;;5042490;28;20080;-70
2023/05/04 09:33:28;;;;;;;14.23;4.97;;;15.80;99.90;;;;;;5076996;28;20441;-69
2023/05/04 09:35:53;;;;;;;9.43;4.47;;;15.80;99.90;;;;;;5075847;28;20041;-69
2023/05/04 09:38:26;;;;;;;12.18;4.82;;;16.00;99.90;;;;;;5090321;28;20036;-70
2023/05/04 09:40:52;;;;;;;10.38;4.38;;;16.10;99.90;;;;;;5096825;28;20081;-68
2023/05/04 09:43:17;;;;;;;10.02;4.70;;;16.30;99.90;;;;;;5098130;28;20321;-79
2023/05/04 09:45:45;;;;;;;9.68;4.88;;;16.10;99.90;;;;;;5047606;28;20040;-77
2023/05/04 09:48:25;;;;;;;13.98;5.00;;;15.90;99.90;;;;;;5067360;28;20063;-69
2023/05/04 09:50:56;;;;;;;8.98;4.20;;;15.80;99.90;;;;;;5087760;28;20044;-70
2023/05/04 09:53:26;;;;;;;11.88;4.82;;;16.10;99.90;;;;;;5081805;28;20029;-74
2023/05/04 09:56:16;;;;;;;10.98;5.18;;;16.10;99.90;;;;;;5077081;28;20129;-75
2023/05/04 09:58:45;;;;;;;11.75;5.05;;;16.00;99.90;;;;;;5079949;28;20068;-74
2023/05/04 10:01:10;;;;;;;12.25;5.20;;;15.90;99.90;;;;;;5080609;28;20376;-73
2023/05/04 10:03:37;;;;;;;12.73;4.93;;;15.80;99.90;;;;;;5079186;28;20093;-73
2023/05/04 10:06:07;;;;;;;10.63;5.13;;;16.00;99.90;;;;;;5096731;28;20048;-73
2023/05/04 10:08:33;;;;;;;13.05;5.53;;;15.90;99.90;;;;;;5079110;28;20445;-74
2023/05/04 10:10:59;;;;;;;10.75;4.95;;;16.00;99.90;;;;;;5078756;28;20051;-73
2023/05/04 10:13:25;;;;;;;12.48;5.50;;;15.60;99.90;;;;;;5096922;28;20044;-73
2023/05/04 10:15:59;;;;;;;11.80;5.00;;;15.70;99.90;;;;;;5096755;28;20043;-74
2023/05/04 10:18:58;;;;;;;11.38;4.80;;;15.70;99.90;;;;;;5096696;28;20048;-74
2023/05/04 10:21:46;;;;;;;11.63;4.72;;;15.80;99.90;;;;;;5079174;28;20131;-74
2023/05/04 10:24:26;;;;;;;13.88;4.95;;;15.80;99.90;;;;;;5079039;28;20036;-74
2023/05/04 10:27:08;;;;;;;9.88;4.53;;;16.00;99.90;;;;;;5062421;28;20040;-74
2023/05/04 10:29:35;;;;;;;11.65;5.20;;;15.90;99.90;;;;;;5096427;28;20123;-74
2023/05/04 10:32:01;;;;;;;10.38;4.32;;;16.20;99.90;;;;;;5096871;28;20044;-75
2023/05/04 10:34:31;;;;;;;15.10;4.75;;;16.10;99.90;;;;;;5096897;28;20368;-75
2023/05/04 10:36:59;;;;;;;11.10;4.43;;;16.40;99.90;;;;;;5078686;28;20067;-75
2023/05/04 10:39:28;;;;;;;11.88;4.53;;;16.20;99.90;;;;;;5096732;28;20417;-75
2023/05/04 10:42:05;;;;;;;10.95;5.47;;;16.00;99.90;;;;;;5062138;28;20367;-75
2023/05/04 10:44:54;;;;;;;12.13;4.68;;;16.30;99.90;;;;;;5079239;28;20046;-75
2023/05/04 10:47:32;;;;;;;8.65;4.40;;;16.40;99.90;;;;;;5078509;28;20079;-75
2023/05/04 10:50:05;;;;;;;9.50;5.38;;;16.70;99.90;;;;;;5080435;28;20075;-75
2023/05/04 10:52:52;;;;;;;12.50;4.80;;;16.90;99.90;;;;;;5098686;28;20046;-75
2023/05/04 10:55:20;;;;;;;11.68;4.30;;;17.20;99.90;;;;;;5089128;28;20042;-74
2023/05/04 10:57:50;;;;;;;14.43;4.82;;;17.20;99.90;;;;;;5082078;28;20437;-72
2023/05/04 11:00:17;;;;;;;9.32;4.75;;;17.40;99.90;;;;;;5082983;28;20055;-72
2023/05/04 11:02:45;;;;;;;8.75;4.72;;;17.50;99.90;;;;;;5079955;28;20043;-72
2023/05/04 11:05:16;;;;;;;10.68;4.68;;;17.10;99.90;;;;;;5062497;28;20036;-71
2023/05/04 11:07:42;;;;;;;6.72;3.97;;;17.10;99.90;;;;;;5079947;28;20135;-72
2023/05/04 11:10:24;;;;;;;8.60;4.78;;;17.40;99.90;;;;;;5079614;28;20082;-72
2023/05/04 11:12:50;;;;;;;9.23;4.00;;;17.60;99.90;;;;;;5079860;28;20043;-72
2023/05/04 11:15:15;;;;;;;13.38;4.82;;;17.70;99.90;;;;;;5079849;28;20048;-72
2023/05/04 11:17:48;;;;;;;10.48;4.22;;;18.00;99.90;;;;;;5079425;28;20045;-71
2023/05/04 11:20:20;;;;;;;12.70;5.10;;;17.90;99.90;;;;;;5061955;28;20489;-72
2023/05/04 11:22:46;;;;;;;11.50;4.55;;;17.90;99.90;;;;;;5079361;28;20048;-72
2023/05/04 11:25:12;;;;;;;12.40;4.68;;;18.00;99.90;;;;;;5079306;28;20517;-72
2023/05/04 11:27:38;;;;;;;9.35;4.35;;;18.10;99.90;;;;;;5079540;28;20188;-72
2023/05/04 11:30:04;;;;;;;11.63;4.47;;;18.20;99.90;;;;;;5061984;28;20052;-88
2023/05/04 11:32:34;;;;;;;8.40;4.25;;;18.30;99.90;;;;;;5061985;28;20041;-79
2023/05/04 11:35:01;;;;;;;11.80;5.05;;;18.50;99.90;;;;;;5062148;28;20048;-72
2023/05/04 11:37:36;;;;;;;8.88;4.25;;;18.90;99.90;;;;;;5079317;28;20083;-68
2023/05/04 11:40:06;;;;;;;9.38;4.43;;;19.40;99.90;;;;;;5061484;28;20376;-71
2023/05/04 11:42:32;;;;;;;11.48;4.43;;;19.90;99.90;;;;;;5079313;28;20063;-70
2023/05/04 11:44:58;;;;;;;8.60;3.92;;;20.50;99.90;;;;;;5079281;28;20418;-69
2023/05/04 11:47:25;;;;;;;11.63;4.93;;;20.90;99.90;;;;;;5078925;28;20041;-69
2023/05/04 11:49:51;;;;;;;10.05;4.75;;;21.10;99.90;;;;;;5061409;28;20071;-69
2023/05/04 11:52:24;;;;;;;10.30;4.15;;;21.10;99.90;;;;;;5079117;28;20117;-69
2023/05/04 11:54:56;;;;;;;8.90;3.92;;;21.10;99.90;;;;;;5078857;28;20036;-69
2023/05/04 11:57:22;;;;;;;7.38;4.13;;;20.80;99.90;;;;;;5088962;28;20051;-71
2023/05/04 11:59:48;;;;;;;10.10;4.57;;;20.70;99.90;;;;;;5098629;28;20417;-75
2023/05/04 12:02:15;;;;;;;11.73;4.78;;;20.50;99.90;;;;;;5047195;28;20040;-75
2023/05/04 12:04:41;;;;;;;7.20;4.00;;;19.70;99.90;;;;;;5064572;28;20101;-75
2023/05/04 12:07:07;;;;;;;8.48;4.40;;;19.60;99.90;;;;;;5064673;28;20417;-75
2023/05/04 12:09:44;;;;;;;9.50;4.18;;;19.80;99.90;;;;;;5081029;28;20036;-75
2023/05/04 12:12:10;;;;;;;10.45;4.53;;;20.00;99.90;;;;;;5081064;28;20115;-75
2023/05/04 12:14:46;;;;;;;7.75;4.25;;;20.10;99.90;;;;;;5081064;28;20392;-75
2023/05/04 12:17:11;;;;;;;;;;;20.10;99.90;;;;;;5099524;28;20052;-75
2023/05/04 12:19:51;;;;;;;14.10;4.83;;;20.10;99.90;;;;;;5080886;28;20305;-75
2023/05/04 12:22:24;;;;;;;9.55;4.68;;;20.30;99.90;;;;;;5080996;28;20047;-77
2023/05/04 12:24:50;;;;;;;14.05;4.63;;;20.30;99.90;;;;;;5081439;28;20044;-82
2023/05/04 12:27:15;;;;;;;6.05;4.10;;;20.00;99.90;;;;;;5064591;28;20047;-75
2023/05/04 12:29:41;;;;;;;11.65;4.30;;;20.20;99.90;;;;;;5099607;28;20135;-81
2023/05/04 12:32:07;;;;;;;9.23;4.78;;;20.00;99.90;;;;;;5064561;28;20059;-73
2023/05/04 12:34:33;;;;;;;11.30;4.40;;;19.90;99.90;;;;;;5098725;28;20044;-72
2023/05/04 12:36:58;;;;;;;11.00;4.57;;;19.90;99.90;;;;;;5080354;28;20127;-73
2023/05/04 12:39:24;;;;;;;8.98;4.15;;;20.00;99.90;;;;;;5098493;28;20146;-72
2023/05/04 12:41:50;;;;;;;12.02;4.80;;;20.20;99.90;;;;;;5098211;28;20440;-72
2023/05/04 12:44:16;;;;;;;7.13;4.22;;;20.00;99.90;;;;;;5098407;28;20054;-72